Time;durP1;ratioP1;P1;durP2;ratioP2;P2;SDS_P1;SDS_P2;PMS_P1;PMS_P2;Temp;Humidity;BMP_temperature;BMP_pressure;BME280_temperature;BME280_humidity;BME280_pressure;Samples;Min_cycle;Max_cycle;Signal;HPM_P1;HPM_P2
2022/04/22 00:00:11;;;;;;;10.70;5.60;;;;;;;;;;5031907;27;95461;-74
2022/04/22 00:02:39;;;;;;;11.55;6.20;;;;;;;;;;5031234;28;95795;-74
2022/04/22 00:05:05;;;;;;;9.00;5.63;;;;;;;;;;5032231;27;97318;-75
2022/04/22 00:07:32;;;;;;;8.93;6.18;;;;;;;;;;5031551;27;95381;-75
2022/04/22 00:09:58;;;;;;;16.50;6.30;;;;;;;;;;5035207;28;96831;-73
2022/04/22 00:12:24;;;;;;;13.75;6.72;;;;;;;;;;5031705;27;96454;-75
2022/04/22 00:14:51;;;;;;;12.30;6.43;;;;;;;;;;5035484;27;97169;-72
2022/04/22 00:17:17;;;;;;;12.88;6.50;;;;;;;;;;5034825;27;97526;-73
2022/04/22 00:19:43;;;;;;;11.13;5.93;;;;;;;;;;5035778;27;95187;-74
2022/04/22 00:22:09;;;;;;;10.57;6.20;;;;;;;;;;5034046;27;96830;-71
2022/04/22 00:24:36;;;;;;;12.93;6.20;;;;;;;;;;5034676;28;97364;-74
2022/04/22 00:27:03;;;;;;;11.85;6.30;;;;;;;;;;5035009;28;95392;-74
2022/04/22 00:29:29;;;;;;;12.35;6.75;;;;;;;;;;5034919;28;95784;-72
2022/04/22 00:31:55;;;;;;;10.77;6.45;;;;;;;;;;5038032;27;96922;-74
2022/04/22 00:34:22;;;;;;;14.05;6.90;;;;;;;;;;5034558;27;96638;-72
2022/04/22 00:36:49;;;;;;;14.00;6.80;;;;;;;;;;5034744;28;97410;-72
2022/04/22 00:39:16;;;;;;;11.20;6.63;;;;;;;;;;5035392;28;95994;-73
2022/04/22 00:41:43;;;;;;;9.88;6.78;;;;;;;;;;5034734;27;96811;-75
2022/04/22 00:44:10;;;;;;;11.98;6.70;;;;;;;;;;5034278;27;96191;-76
2022/04/22 00:46:37;;;;;;;12.27;6.70;;;;;;;;;;5035110;28;95200;-76
2022/04/22 00:49:03;;;;;;;12.85;7.10;;;;;;;;;;5035130;27;95653;-75
2022/04/22 00:51:30;;;;;;;13.18;7.30;;;;;;;;;;5033829;27;97334;-77
2022/04/22 00:53:56;;;;;;;10.88;7.55;;;;;;;;;;5038071;27;95142;-76
2022/04/22 00:56:23;;;;;;;12.52;6.78;;;;;;;;;;5034331;27;97441;-77
2022/04/22 00:58:49;;;;;;;12.23;7.07;;;;;;;;;;5034232;28;95327;-77
2022/04/22 01:01:16;;;;;;;17.40;6.55;;;;;;;;;;5034370;28;96775;-75
2022/04/22 01:12:01;;;;;;;13.13;6.65;;;;;;;;;;5033807;28;97345;-74
2022/04/22 01:14:28;;;;;;;11.48;7.10;;;;;;;;;;5034600;28;95173;-74
2022/04/22 01:16:55;;;;;;;14.68;7.03;;;;;;;;;;5037936;27;96389;-73
2022/04/22 01:19:21;;;;;;;14.38;7.35;;;;;;;;;;5033761;27;95094;-72
2022/04/22 01:21:48;;;;;;;15.60;6.50;;;;;;;;;;5033940;27;97164;-74
2022/04/22 01:24:14;;;;;;;15.68;7.03;;;;;;;;;;5034161;27;96338;-75
2022/04/22 01:26:41;;;;;;;10.65;7.43;;;;;;;;;;5033870;27;95340;-74
2022/04/22 01:29:07;;;;;;;12.10;7.25;;;;;;;;;;5034185;27;95810;-71
2022/04/22 01:31:33;;;;;;;11.02;6.78;;;;;;;;;;5033482;28;97274;-72
2022/04/22 01:34:00;;;;;;;12.32;6.65;;;;;;;;;;5034482;27;95030;-74
2022/04/22 01:36:26;;;;;;;9.73;6.60;;;;;;;;;;5034034;27;96818;-76
2022/04/22 01:38:53;;;;;;;13.15;7.45;;;;;;;;;;5036364;27;97302;-73
2022/04/22 01:41:21;;;;;;;12.40;7.03;;;;;;;;;;5033973;27;96819;-76
2022/04/22 01:43:47;;;;;;;14.43;6.75;;;;;;;;;;5033959;27;97185;-76
2022/04/22 01:46:15;;;;;;;12.88;7.18;;;;;;;;;;5033920;28;95318;-73
2022/04/22 01:48:42;;;;;;;14.10;7.90;;;;;;;;;;5033445;27;96152;-75
2022/04/22 01:51:08;;;;;;;9.98;6.88;;;;;;;;;;5033145;27;97413;-73
2022/04/22 01:53:34;;;;;;;14.20;7.20;;;;;;;;;;5034072;27;95080;-76
2022/04/22 01:56:01;;;;;;;16.42;7.63;;;;;;;;;;5032991;28;95707;-76
2022/04/22 01:58:28;;;;;;;13.85;7.22;;;;;;;;;;5036647;27;97366;-74
2022/04/22 02:00:54;;;;;;;11.35;7.32;;;;;;;;;;5033007;27;96643;-72
2022/04/22 02:03:20;;;;;;;13.15;7.22;;;;;;;;;;5033684;28;97357;-73
2022/04/22 02:05:47;;;;;;;16.10;7.28;;;;;;;;;;5033980;27;95567;-77
2022/04/22 02:08:13;;;;;;;11.52;6.85;;;;;;;;;;5033607;27;95604;-76
2022/04/22 02:10:41;;;;;;;16.17;7.72;;;;;;;;;;5033104;28;97265;-77
2022/04/22 02:13:08;;;;;;;14.13;7.40;;;;;;;;;;5032836;27;95422;-76
2022/04/22 02:15:35;;;;;;;11.00;7.65;;;;;;;;;;5031564;27;96471;-77
2022/04/22 02:18:01;;;;;;;18.75;7.75;;;;;;;;;;5033552;27;97184;-77
2022/04/22 02:20:28;;;;;;;14.15;7.90;;;;;;;;;;5030952;28;95362;-76
2022/04/22 02:22:54;;;;;;;11.82;7.72;;;;;;;;;;5012783;28;96222;-75
2022/04/22 02:25:20;;;;;;;12.70;8.13;;;;;;;;;;5013190;28;95301;-76
2022/04/22 02:30:32;;;;;;;12.27;7.30;;;;;;;;;;5031042;28;97341;-75
2022/04/22 02:32:58;;;;;;;13.25;6.97;;;;;;;;;;5015537;28;95205;-77
2022/04/22 02:35:25;;;;;;;13.52;7.40;;;;;;;;;;5031943;28;96893;-76
2022/04/22 02:37:52;;;;;;;12.20;6.97;;;;;;;;;;5032652;28;97772;-76
2022/04/22 02:45:49;;;;;;;14.57;6.40;;;;;;;;;;5033315;28;95147;-77
2022/04/22 02:48:16;;;;;;;13.73;6.93;;;;;;;;;;5032988;27;96864;-72
2022/04/22 02:50:42;;;;;;;17.55;6.90;;;;;;;;;;5032008;27;97781;-74
2022/04/22 02:53:08;;;;;;;14.65;7.20;;;;;;;;;;5033101;27;95194;-72
2022/04/22 02:55:36;;;;;;;12.63;7.43;;;;;;;;;;5033624;27;96865;-77
2022/04/22 02:58:02;;;;;;;8.93;6.30;;;;;;;;;;5032386;27;97278;-74
2022/04/22 03:00:28;;;;;;;14.40;6.90;;;;;;;;;;5030636;27;95370;-74
2022/04/22 03:02:55;;;;;;;11.13;7.30;;;;;;;;;;5032899;28;96816;-73
2022/04/22 03:05:21;;;;;;;14.38;6.93;;;;;;;;;;5034200;28;97262;-74
2022/04/22 03:07:47;;;;;;;15.27;7.90;;;;;;;;;;5033069;28;96816;-72
2022/04/22 03:10:14;;;;;;;12.63;6.82;;;;;;;;;;5031801;27;96318;-74
2022/04/22 03:12:42;;;;;;;15.40;7.60;;;;;;;;;;5032882;28;95263;-74
2022/04/22 03:15:08;;;;;;;10.77;7.32;;;;;;;;;;5033063;27;97085;-74
2022/04/22 03:17:35;;;;;;;16.25;8.18;;;;;;;;;;5030587;28;97406;-73
2022/04/22 03:20:01;;;;;;;15.35;7.57;;;;;;;;;;5048681;27;95364;-73
2022/04/22 03:22:27;;;;;;;15.10;7.82;;;;;;;;;;5031714;28;96763;-76
2022/04/22 03:24:54;;;;;;;13.65;7.80;;;;;;;;;;5032177;28;97317;-76
2022/04/22 03:27:20;;;;;;;15.23;8.32;;;;;;;;;;5035322;27;95358;-74
2022/04/22 03:29:46;;;;;;;13.63;8.18;;;;;;;;;;5032425;28;97646;-75
2022/04/22 03:32:13;;;;;;;14.20;8.30;;;;;;;;;;5031123;27;95289;-74
2022/04/22 03:34:39;;;;;;;17.20;8.55;;;;;;;;;;5032283;28;96024;-72
2022/04/22 03:37:06;;;;;;;17.63;8.18;;;;;;;;;;5032518;28;97824;-75
2022/04/22 03:39:32;;;;;;;14.20;8.73;;;;;;;;;;5030470;28;95593;-73
2022/04/22 03:41:59;;;;;;;16.25;8.25;;;;;;;;;;5031838;28;96744;-74
2022/04/22 03:44:26;;;;;;;15.23;8.90;;;;;;;;;;5032474;28;97389;-72
2022/04/22 03:46:52;;;;;;;13.27;9.18;;;;;;;;;;5032226;27;95310;-72
2022/04/22 03:49:18;;;;;;;17.25;9.50;;;;;;;;;;5038604;27;97520;-73
2022/04/22 03:51:45;;;;;;;17.42;8.90;;;;;;;;;;5035240;28;95705;-73
2022/04/22 03:54:11;;;;;;;18.52;8.80;;;;;;;;;;5034772;27;95927;-73
2022/04/22 03:59:24;;;;;;;16.60;9.02;;;;;;;;;;5035858;27;95189;-71
2022/04/22 04:01:50;;;;;;;13.95;8.35;;;;;;;;;;5035539;28;97442;-72
2022/04/22 04:04:16;;;;;;;15.43;8.98;;;;;;;;;;5034925;28;97185;-70
2022/04/22 04:06:43;;;;;;;16.15;9.18;;;;;;;;;;5034164;27;95301;-73
2022/04/22 04:17:23;;;;;;;14.63;9.30;;;;;;;;;;5034946;27;96252;-73
2022/04/22 04:25:19;;;;;;;18.70;10.05;;;;;;;;;;5034228;27;97509;-71
2022/04/22 04:27:46;;;;;;;15.98;10.13;;;;;;;;;;5034872;27;95073;-71
2022/04/22 04:30:12;;;;;;;17.35;10.43;;;;;;;;;;5034073;27;95589;-73
2022/04/22 19:12:16;;;;;;;16.98;9.27;;;;;;;;;;5117389;27;95430;-72
2022/04/22 19:14:43;;;;;;;14.93;9.18;;;;;;;;;;5062141;27;97318;-72
2022/04/22 19:17:09;;;;;;;16.70;8.95;;;;;;;;;;4984932;28;95169;-74
2022/04/22 19:19:42;;;;;;;15.77;9.30;;;;;;;;;;4985119;28;96709;-76
2022/04/22 19:22:09;;;;;;;22.15;15.23;;;;;;;;;;4996211;27;97273;-74
2022/04/22 19:24:35;;;;;;;15.35;9.30;;;;;;;;;;5015449;27;96361;-71
2022/04/22 19:27:03;;;;;;;17.08;8.90;;;;;;;;;;5004156;27;96824;-70
2022/04/22 19:29:29;;;;;;;16.90;10.02;;;;;;;;;;4976703;28;97010;-72
2022/04/22 19:31:56;;;;;;;17.27;9.38;;;;;;;;;;4968250;28;95193;-73
2022/04/22 19:34:22;;;;;;;14.15;8.90;;;;;;;;;;4965167;27;95299;-72
2022/04/22 19:42:18;;;;;;;12.88;8.57;;;;;;;;;;4981057;28;96205;-74
2022/04/22 19:44:45;;;;;;;19.00;9.10;;;;;;;;;;4972786;28;95538;-75
2022/04/22 19:47:11;;;;;;;14.13;9.18;;;;;;;;;;4965435;28;96721;-73
2022/04/22 19:49:37;;;;;;;17.27;9.10;;;;;;;;;;4970145;28;97422;-74
2022/04/22 19:52:04;;;;;;;16.80;8.98;;;;;;;;;;4987912;27;95209;-73
2022/04/22 19:54:31;;;;;;;19.35;12.05;;;;;;;;;;4972899;28;97190;-74
2022/04/22 19:56:58;;;;;;;21.27;10.60;;;;;;;;;;4965455;28;95050;-72
2022/04/22 19:59:24;;;;;;;23.42;10.63;;;;;;;;;;4977769;27;95783;-72
2022/04/22 20:01:52;;;;;;;19.80;11.15;;;;;;;;;;4978879;28;97002;-72
2022/04/22 20:04:18;;;;;;;26.17;11.85;;;;;;;;;;4962888;28;95355;-74
2022/04/22 20:06:44;;;;;;;25.38;11.50;;;;;;;;;;4965013;28;96572;-73
2022/04/22 20:09:10;;;;;;;20.35;10.98;;;;;;;;;;4980993;28;97334;-73
2022/04/22 20:11:37;;;;;;;24.35;11.27;;;;;;;;;;4976664;28;96951;-72
2022/04/22 20:14:03;;;;;;;29.27;9.80;;;;;;;;;;4965624;27;96545;-72
2022/04/22 20:16:29;;;;;;;17.60;10.00;;;;;;;;;;4980853;27;97399;-73
2022/04/22 20:18:56;;;;;;;19.55;9.77;;;;;;;;;;4963450;28;97075;-73
2022/04/22 20:21:22;;;;;;;16.45;9.60;;;;;;;;;;4970757;28;97428;-74
2022/04/22 20:23:49;;;;;;;16.35;9.93;;;;;;;;;;4956061;27;96363;-73
2022/04/22 20:26:15;;;;;;;19.95;10.68;;;;;;;;;;4970543;27;96878;-74
2022/04/22 20:28:41;;;;;;;14.20;10.10;;;;;;;;;;4971727;28;96052;-73
2022/04/22 20:31:10;;;;;;;19.23;11.00;;;;;;;;;;4970720;28;95135;-73
2022/04/22 20:33:37;;;;;;;15.60;11.00;;;;;;;;;;4971665;28;96566;-73
2022/04/22 20:41:35;;;;;;;14.48;9.70;;;;;;;;;;4972284;27;97252;-76
2022/04/22 20:44:07;;;;;;;16.55;9.85;;;;;;;;;;4983200;27;95294;-74
2022/04/22 20:46:34;;;;;;;17.40;10.43;;;;;;;;;;4971664;28;95737;-77
2022/04/22 20:49:02;;;;;;;33.75;10.27;;;;;;;;;;4971298;28;97173;-76
2022/04/22 20:51:28;;;;;;;15.18;9.80;;;;;;;;;;4970505;28;95392;-77
2022/04/22 20:53:54;;;;;;;21.23;9.77;;;;;;;;;;4972140;28;95598;-76
2022/04/22 20:56:21;;;;;;;14.85;9.82;;;;;;;;;;4971936;28;97359;-77
2022/04/22 20:58:48;;;;;;;15.27;11.88;;;;;;;;;;4972358;28;95321;-77
2022/04/22 21:01:15;;;;;;;20.30;12.95;;;;;;;;;;4973566;28;96712;-76
2022/04/22 21:03:41;;;;;;;20.90;11.15;;;;;;;;;;4971599;28;95201;-74
2022/04/22 21:06:08;;;;;;;15.68;10.85;;;;;;;;;;4971392;28;96858;-76
2022/04/22 21:08:35;;;;;;;17.73;10.63;;;;;;;;;;4970498;28;97289;-77
2022/04/22 21:11:02;;;;;;;20.35;10.90;;;;;;;;;;4970757;28;95289;-77
2022/04/22 21:13:29;;;;;;;13.80;10.15;;;;;;;;;;4973551;27;97156;-76
2022/04/22 21:15:56;;;;;;;17.30;10.15;;;;;;;;;;4970993;28;97330;-73
2022/04/22 21:18:22;;;;;;;16.67;10.35;;;;;;;;;;4971181;28;95103;-76
2022/04/22 21:20:48;;;;;;;20.02;10.70;;;;;;;;;;4969289;28;97089;-77
2022/04/22 21:23:15;;;;;;;18.92;12.40;;;;;;;;;;4973569;28;95430;-74
2022/04/22 21:25:42;;;;;;;16.80;9.90;;;;;;;;;;4971486;28;96639;-77
2022/04/22 21:28:08;;;;;;;13.95;8.95;;;;;;;;;;4970863;28;97085;-74
2022/04/22 21:30:36;;;;;;;12.70;8.23;;;;;;;;;;4971665;28;96181;-74
2022/04/22 21:33:06;;;;;;;17.55;7.82;;;;;;;;;;4971727;28;95533;-76
2022/04/22 21:35:37;;;;;;;10.52;7.43;;;;;;;;;;4969309;28;99037;-74
2022/04/22 21:38:17;;;;;;;12.98;8.23;;;;;;;;;;4972367;28;96202;-74
2022/04/22 21:40:50;;;;;;;11.18;6.60;;;;;;;;;;4970507;28;95908;-72
2022/04/22 21:43:18;;;;;;;10.35;7.40;;;;;;;;;;4974428;28;97769;-75
2022/04/22 21:45:48;;;;;;;8.98;5.95;;;;;;;;;;4972335;27;97605;-74
2022/04/22 21:48:15;;;;;;;10.68;6.85;;;;;;;;;;4971750;28;97653;-72
2022/04/22 21:50:43;;;;;;;15.32;7.85;;;;;;;;;;4970092;28;95361;-75
2022/04/22 21:53:17;;;;;;;11.25;6.50;;;;;;;;;;4970985;28;96006;-73
2022/04/22 21:55:47;;;;;;;11.10;6.20;;;;;;;;;;4971202;28;96131;-75
2022/04/22 21:58:14;;;;;;;15.40;6.13;;;;;;;;;;4972089;28;95272;-76
2022/04/22 22:01:03;;;;;;;10.40;5.65;;;;;;;;;;4971352;28;95648;-74
2022/04/22 22:03:30;;;;;;;8.18;5.82;;;;;;;;;;4971089;28;97958;-73
2022/04/22 22:05:58;;;;;;;10.45;5.72;;;;;;;;;;4974982;28;95297;-72
2022/04/22 22:08:25;;;;;;;9.70;5.53;;;;;;;;;;4971305;28;97266;-75
2022/04/22 22:11:07;;;;;;;9.90;6.00;;;;;;;;;;5000637;27;95304;-76
2022/04/22 22:13:34;;;;;;;11.75;5.68;;;;;;;;;;4992891;27;97220;-75
2022/04/22 22:16:01;;;;;;;12.52;6.15;;;;;;;;;;4970646;28;97770;-75
2022/04/22 22:18:28;;;;;;;10.15;5.53;;;;;;;;;;4970484;28;95300;-76
2022/04/22 22:20:55;;;;;;;12.50;6.05;;;;;;;;;;4971914;28;95806;-76
2022/04/22 22:23:21;;;;;;;7.68;4.93;;;;;;;;;;4970158;28;96478;-76
2022/04/22 22:25:48;;;;;;;10.18;5.88;;;;;;;;;;4970573;28;95284;-76
2022/04/22 22:28:14;;;;;;;11.82;5.72;;;;;;;;;;4972819;28;96971;-73
2022/04/22 22:30:40;;;;;;;8.63;5.63;;;;;;;;;;4971038;28;95276;-76
2022/04/22 22:33:07;;;;;;;8.98;5.47;;;;;;;;;;4971187;28;96871;-75
2022/04/22 22:35:33;;;;;;;11.13;6.20;;;;;;;;;;4969691;28;97897;-74
2022/04/22 22:38:00;;;;;;;8.77;5.35;;;;;;;;;;4969788;27;95324;-76
2022/04/22 22:40:26;;;;;;;9.43;5.40;;;;;;;;;;4970806;28;96930;-74
2022/04/22 22:42:52;;;;;;;8.15;5.57;;;;;;;;;;4970377;28;97178;-73
2022/04/22 22:45:18;;;;;;;8.07;5.40;;;;;;;;;;4969975;28;95182;-75
2022/04/22 22:47:45;;;;;;;8.98;5.65;;;;;;;;;;4971155;28;97062;-75
2022/04/22 22:50:11;;;;;;;18.30;5.72;;;;;;;;;;4973610;28;97179;-75
2022/04/22 22:52:38;;;;;;;8.38;5.53;;;;;;;;;;4969570;28;96774;-75
2022/04/22 22:55:04;;;;;;;8.55;5.38;;;;;;;;;;4970284;28;97456;-73
2022/04/22 22:57:30;;;;;;;9.35;5.68;;;;;;;;;;4969376;28;95269;-77
2022/04/22 22:59:57;;;;;;;12.30;5.70;;;;;;;;;;4970011;28;96783;-76
2022/04/22 23:02:24;;;;;;;12.00;6.20;;;;;;;;;;4970092;28;97131;-75
2022/04/22 23:04:51;;;;;;;10.27;5.85;;;;;;;;;;4970370;28;95202;-77
2022/04/22 23:07:17;;;;;;;10.45;5.93;;;;;;;;;;4970087;28;96583;-76
2022/04/22 23:09:44;;;;;;;8.88;5.65;;;;;;;;;;4970168;28;97458;-75
2022/04/22 23:12:13;;;;;;;14.30;5.88;;;;;;;;;;4973579;28;95458;-76
2022/04/22 23:14:42;;;;;;;8.55;5.80;;;;;;;;;;4969137;28;96365;-77
2022/04/22 23:17:08;;;;;;;12.00;6.22;;;;;;;;;;4970545;28;95430;-76
2022/04/22 23:19:35;;;;;;;12.18;6.50;;;;;;;;;;4969858;28;97173;-76
2022/04/22 23:22:01;;;;;;;9.93;6.28;;;;;;;;;;4971020;27;97199;-75
2022/04/22 23:24:28;;;;;;;12.20;6.55;;;;;;;;;;4969938;28;95374;-71
2022/04/22 23:26:54;;;;;;;8.63;6.20;;;;;;;;;;4969811;28;95080;-74
2022/04/22 23:29:22;;;;;;;10.52;6.78;;;;;;;;;;4966989;28;97085;-73
2022/04/22 23:31:48;;;;;;;15.18;6.88;;;;;;;;;;4973043;28;95290;-74
2022/04/22 23:34:17;;;;;;;11.25;6.90;;;;;;;;;;4969188;28;97267;-74
2022/04/22 23:36:43;;;;;;;11.27;6.70;;;;;;;;;;4971255;27;95299;-76
2022/04/22 23:39:09;;;;;;;12.13;7.07;;;;;;;;;;4969517;28;96902;-74
2022/04/22 23:41:36;;;;;;;10.38;6.60;;;;;;;;;;4967091;28;97165;-78
2022/04/22 23:44:02;;;;;;;11.65;6.47;;;;;;;;;;4969896;28;95059;-77
2022/04/22 23:46:29;;;;;;;12.18;6.50;;;;;;;;;;4969648;28;96559;-76
2022/04/22 23:48:55;;;;;;;9.80;6.53;;;;;;;;;;4969009;28;97366;-76
2022/04/22 23:51:23;;;;;;;10.57;7.07;;;;;;;;;;4968776;28;95318;-73
2022/04/22 23:53:51;;;;;;;9.93;6.80;;;;;;;;;;4971980;28;96770;-76
2022/04/22 23:56:18;;;;;;;12.20;7.05;;;;;;;;;;4968630;28;95258;-76
2022/04/22 23:58:44;;;;;;;11.60;7.10;;;;;;;;;;4971951;28;96614;-76
